RJTH(METAR)
08/23 17:00
RJTH 230800Z 24013KT 9999 FEW012 SCT020 BKN035 29/26 Q1009 RMK
A2982=
戻る
トップページへ戻る
IMOC Co,.Ltd.